createdAt,value
2022-10-31T00:03:00.671Z,14.83
2022-10-31T00:06:08.990Z,9.65
2022-10-31T00:09:17.250Z,18.12
2022-10-31T00:12:22.964Z,18.50
2022-10-31T00:15:29.176Z,11.48
2022-10-31T00:18:35.785Z,11.00
2022-10-31T00:21:42.577Z,13.38
2022-10-31T00:24:49.081Z,12.28
2022-10-31T00:27:54.880Z,12.18
2022-10-31T00:31:01.094Z,15.60
2022-10-31T00:34:07.229Z,16.87
2022-10-31T00:37:13.556Z,16.12
2022-10-31T00:40:23.158Z,10.93
2022-10-31T00:43:29.407Z,13.88
2022-10-31T00:46:35.874Z,14.50
2022-10-31T00:49:41.878Z,14.78
2022-10-31T00:52:47.400Z,16.35
2022-10-31T00:55:53.228Z,11.05
2022-10-31T00:58:59.354Z,16.73
2022-10-31T01:02:04.270Z,18.20
2022-10-31T01:05:10.607Z,14.50
2022-10-31T01:08:17.842Z,15.63
2022-10-31T01:11:30.414Z,11.53
2022-10-31T01:14:38.026Z,16.30
2022-10-31T01:17:44.707Z,14.47
2022-10-31T01:20:50.636Z,21.10
2022-10-31T01:23:57.564Z,17.30
2022-10-31T01:27:04.123Z,15.23
2022-10-31T01:30:09.415Z,26.10
2022-10-31T01:33:16.071Z,13.13
2022-10-31T01:36:42.531Z,19.48
2022-10-31T01:39:48.247Z,18.73
2022-10-31T01:42:54.625Z,13.43
2022-10-31T01:46:03.403Z,14.60
2022-10-31T01:49:10.035Z,21.00
2022-10-31T01:52:19.954Z,14.93
2022-10-31T01:55:35.840Z,18.70
2022-10-31T01:58:43.755Z,17.87
2022-10-31T02:01:49.299Z,16.27
2022-10-31T02:04:55.593Z,15.85
2022-10-31T02:08:44.760Z,16.23
2022-10-31T02:11:53.244Z,27.93
2022-10-31T02:14:59.857Z,22.15
2022-10-31T02:18:05.253Z,17.57
2022-10-31T02:21:36.137Z,15.18
2022-10-31T02:25:21.135Z,19.67
2022-10-31T02:29:05.869Z,14.55
2022-10-31T02:32:26.850Z,15.38
2022-10-31T02:35:43.189Z,13.28
2022-10-31T02:39:07.785Z,13.30
2022-10-31T02:42:39.541Z,18.85
2022-10-31T02:46:08.078Z,10.78
2022-10-31T02:49:11.421Z,16.90
2022-10-31T02:52:18.033Z,13.93
2022-10-31T02:55:43.500Z,15.45
2022-10-31T02:58:53.175Z,17.05
2022-10-31T03:02:19.011Z,9.95
2022-10-31T03:06:01.639Z,14.05
2022-10-31T03:09:23.426Z,17.10
2022-10-31T03:12:25.742Z,13.85
2022-10-31T03:15:42.714Z,23.85
2022-10-31T03:18:58.285Z,10.38
2022-10-31T03:22:15.078Z,15.00
2022-10-31T03:25:21.550Z,17.00
2022-10-31T03:28:28.669Z,22.95
2022-10-31T03:31:38.380Z,18.55
2022-10-31T03:34:45.344Z,16.12
2022-10-31T03:37:52.878Z,13.38
2022-10-31T03:41:00.212Z,13.55
2022-10-31T03:44:13.013Z,20.00
2022-10-31T03:47:21.601Z,15.00
2022-10-31T03:50:23.129Z,11.57
2022-10-31T03:53:45.110Z,13.38
2022-10-31T03:56:54.998Z,13.15
2022-10-31T04:00:05.482Z,12.75
2022-10-31T04:03:34.583Z,10.98
2022-10-31T04:06:41.786Z,16.32
2022-10-31T04:09:49.159Z,14.10
2022-10-31T04:12:54.914Z,19.55
2022-10-31T04:16:02.750Z,13.62
2022-10-31T04:19:08.682Z,19.12
2022-10-31T04:22:14.964Z,10.58
2022-10-31T04:25:23.288Z,14.43
2022-10-31T04:28:29.532Z,16.25
2022-10-31T04:31:34.275Z,14.00
2022-10-31T04:34:39.771Z,12.88
2022-10-31T04:37:38.263Z,26.23
2022-10-31T04:40:45.385Z,16.00
2022-10-31T04:44:03.107Z,17.23
2022-10-31T04:47:09.548Z,17.80
2022-10-31T04:50:15.151Z,16.00
2022-10-31T04:53:20.561Z,14.23
2022-10-31T04:56:29.168Z,14.87
2022-10-31T04:59:35.757Z,15.63
2022-10-31T05:02:44.520Z,13.22
2022-10-31T05:05:51.858Z,16.45
2022-10-31T05:08:57.955Z,16.73
2022-10-31T05:12:04.716Z,14.47
2022-10-31T05:15:20.000Z,12.25
2022-10-31T05:18:45.426Z,17.12
2022-10-31T05:22:12.478Z,20.62
2022-10-31T05:25:19.957Z,13.65
2022-10-31T07:56:40.524Z,18.12
2022-10-31T07:59:48.102Z,11.97
2022-10-31T08:03:00.290Z,11.03
2022-10-31T08:06:14.161Z,8.63
2022-10-31T08:09:48.277Z,8.33
2022-10-31T08:13:01.280Z,12.37
2022-10-31T08:16:12.198Z,13.62
2022-10-31T08:22:24.848Z,9.03
2022-10-31T08:25:38.194Z,6.53
2022-10-31T08:28:42.056Z,12.18
2022-10-31T08:35:13.843Z,8.40
2022-10-31T08:38:36.843Z,3.87
2022-10-31T08:41:52.659Z,4.97
2022-10-31T08:44:46.218Z,5.62
2022-10-31T08:47:59.244Z,4.08
2022-10-31T08:51:07.940Z,4.78
2022-10-31T08:54:16.583Z,7.87
2022-10-31T08:57:30.977Z,10.98
2022-10-31T09:00:38.998Z,8.63
2022-10-31T09:03:50.735Z,10.63
2022-10-31T09:07:20.460Z,11.53
2022-10-31T09:10:14.358Z,13.30
2022-10-31T09:13:28.380Z,8.78
2022-10-31T09:20:04.386Z,9.93
2022-10-31T09:23:20.513Z,10.82
2022-10-31T09:26:19.544Z,3.30
2022-10-31T09:36:46.362Z,7.90
2022-10-31T09:39:58.231Z,1.95
2022-10-31T09:43:36.643Z,1.55
2022-10-31T09:47:08.615Z,3.47
2022-10-31T09:50:46.136Z,3.60
2022-10-31T09:54:21.711Z,3.67
2022-10-31T09:57:34.582Z,3.10
2022-10-31T10:00:47.635Z,2.85
2022-10-31T10:04:35.661Z,0.65
2022-10-31T10:08:00.010Z,3.85
2022-10-31T10:15:10.148Z,1.35
2022-10-31T10:18:39.126Z,1.98
2022-10-31T10:21:56.514Z,2.15
2022-10-31T10:25:32.216Z,3.12
2022-10-31T10:28:49.943Z,0.68
2022-10-31T10:31:56.772Z,6.72
2022-10-31T10:35:06.576Z,2.40
2022-10-31T10:41:29.405Z,4.35
2022-10-31T10:44:52.340Z,1.95
2022-10-31T10:48:03.079Z,0.68
2022-10-31T10:51:25.439Z,6.67
2022-10-31T10:54:47.905Z,3.15
2022-10-31T10:58:14.225Z,1.55
2022-10-31T11:01:30.161Z,3.75
2022-10-31T11:04:49.487Z,3.40
2022-10-31T11:07:55.306Z,2.87
2022-10-31T11:11:00.648Z,1.70
2022-10-31T11:14:20.873Z,3.72
2022-10-31T11:17:39.452Z,5.67
2022-10-31T11:20:50.470Z,2.72
2022-10-31T11:23:57.848Z,1.00
2022-10-31T11:27:05.485Z,3.30
2022-10-31T11:30:20.822Z,0.93
2022-10-31T11:33:43.326Z,8.25
2022-10-31T11:36:46.657Z,1.90
2022-10-31T11:40:00.768Z,2.27
2022-10-31T11:43:06.791Z,1.67
2022-10-31T11:46:13.001Z,1.65
2022-10-31T11:49:18.621Z,3.12
2022-10-31T11:52:36.408Z,1.75
2022-10-31T11:55:49.276Z,1.50
2022-10-31T11:59:16.529Z,2.35
2022-10-31T12:02:34.116Z,2.47
2022-10-31T12:06:01.619Z,4.87
2022-10-31T12:09:08.098Z,11.12
2022-10-31T12:12:40.623Z,5.25
2022-10-31T12:15:51.648Z,3.67
2022-10-31T12:19:06.388Z,4.47
2022-10-31T12:22:20.154Z,1.25
2022-10-31T12:25:32.462Z,2.58
2022-10-31T12:29:04.248Z,8.98
2022-10-31T12:32:14.655Z,6.12
2022-10-31T12:36:10.969Z,2.55
2022-10-31T12:39:52.157Z,2.05
2022-10-31T12:43:38.357Z,4.17
2022-10-31T12:46:58.267Z,4.65
2022-10-31T12:50:57.745Z,7.20
2022-10-31T12:54:27.770Z,4.90
2022-10-31T12:57:45.673Z,7.65
2022-10-31T13:00:51.128Z,4.17
2022-10-31T13:04:12.760Z,3.90
2022-10-31T13:07:21.911Z,6.62
2022-10-31T13:10:39.964Z,5.67
2022-10-31T13:13:59.026Z,3.42
2022-10-31T13:17:04.436Z,2.87
2022-10-31T13:20:22.125Z,4.10
2022-10-31T13:23:50.985Z,2.33
2022-10-31T13:27:00.307Z,2.58
2022-10-31T13:30:17.116Z,4.05
2022-10-31T13:33:25.686Z,6.17
2022-10-31T13:36:56.711Z,7.50
2022-10-31T13:40:28.774Z,3.37
2022-10-31T13:43:47.925Z,3.95
2022-10-31T13:46:54.690Z,6.60
2022-10-31T13:49:59.752Z,6.62
2022-10-31T13:53:06.306Z,3.75
2022-10-31T13:56:36.905Z,4.85
2022-10-31T13:59:47.094Z,8.20
2022-10-31T14:05:56.881Z,5.25
2022-10-31T14:09:06.182Z,5.55
2022-10-31T14:12:15.025Z,8.48
2022-10-31T14:15:38.376Z,4.10
2022-10-31T14:18:54.311Z,5.40
2022-10-31T14:22:01.705Z,10.93
2022-10-31T14:25:08.097Z,9.15
2022-10-31T14:28:14.891Z,8.85
2022-10-31T14:31:45.834Z,8.43
2022-10-31T14:34:59.905Z,5.55
2022-10-31T18:40:07.254Z,6.78
2022-10-31T18:43:12.773Z,10.20
2022-10-31T18:46:21.053Z,9.68
2022-10-31T18:49:29.098Z,10.82
2022-10-31T18:52:34.674Z,14.78
2022-10-31T18:55:43.966Z,16.45
2022-10-31T18:58:48.383Z,15.25
2022-10-31T19:01:54.205Z,18.40
2022-10-31T19:04:54.563Z,12.95
2022-10-31T19:07:59.815Z,13.88
2022-10-31T19:11:05.916Z,17.02
2022-10-31T19:14:13.649Z,18.40
2022-10-31T19:17:20.455Z,16.80
2022-10-31T19:20:27.875Z,14.58
2022-10-31T19:23:34.669Z,18.80
2022-10-31T19:26:41.710Z,16.80
2022-10-31T19:29:49.524Z,15.20
2022-10-31T19:32:54.999Z,15.40
2022-10-31T19:36:01.039Z,23.75
2022-10-31T19:39:07.534Z,15.70
2022-10-31T19:42:13.298Z,22.22
2022-10-31T19:45:20.689Z,18.85
2022-10-31T19:48:25.088Z,17.87
2022-10-31T19:51:34.640Z,17.40
2022-10-31T19:54:39.457Z,26.12
2022-10-31T19:58:01.280Z,15.90
2022-10-31T20:00:56.126Z,10.43
2022-10-31T20:04:01.882Z,19.27
2022-10-31T20:07:09.565Z,13.60
2022-10-31T20:10:15.985Z,10.65
2022-10-31T20:13:22.259Z,13.72
2022-10-31T20:16:27.973Z,10.30
2022-10-31T20:19:33.389Z,10.93
2022-10-31T20:22:39.082Z,15.93
2022-10-31T20:25:44.487Z,11.53
2022-10-31T20:28:50.889Z,13.08
2022-10-31T20:31:56.213Z,14.13
2022-10-31T20:35:03.154Z,12.05
2022-10-31T20:38:02.987Z,10.60
2022-10-31T20:40:55.435Z,14.35
2022-10-31T20:44:01.298Z,11.45
2022-10-31T20:47:07.422Z,11.12
2022-10-31T20:50:14.037Z,15.48
2022-10-31T20:53:19.383Z,9.80
2022-10-31T20:56:31.054Z,9.30
2022-10-31T20:59:37.599Z,10.68
2022-10-31T21:02:43.165Z,17.32
2022-10-31T21:05:50.256Z,15.63
2022-10-31T21:08:57.260Z,11.15
2022-10-31T21:12:05.193Z,12.37
2022-10-31T21:15:11.042Z,11.35
2022-10-31T21:18:17.592Z,11.03
2022-10-31T21:21:32.573Z,15.58
2022-10-31T21:24:37.076Z,12.60
2022-10-31T21:27:42.030Z,14.78
2022-10-31T21:30:48.487Z,7.85
2022-10-31T21:33:55.279Z,10.60
2022-10-31T21:37:01.595Z,9.38
2022-10-31T21:40:07.890Z,6.78
2022-10-31T21:43:13.192Z,8.83
2022-10-31T21:46:23.709Z,12.13
2022-10-31T21:49:29.119Z,11.80
2022-10-31T21:52:27.709Z,11.55
2022-10-31T21:55:14.755Z,11.18
2022-10-31T21:58:06.495Z,10.38
2022-10-31T22:00:52.581Z,11.78
2022-10-31T22:03:45.951Z,21.15
2022-10-31T22:06:51.981Z,5.10
2022-10-31T22:09:58.157Z,15.80
2022-10-31T22:13:05.151Z,9.33
2022-10-31T22:16:17.798Z,12.07
2022-10-31T22:19:27.499Z,10.53
2022-10-31T22:22:34.289Z,13.28
2022-10-31T22:25:40.307Z,12.78
2022-10-31T22:28:47.763Z,7.47
2022-10-31T22:31:59.580Z,6.67
2022-10-31T22:34:59.584Z,12.93
2022-10-31T22:38:05.690Z,7.92
2022-10-31T22:41:12.695Z,9.30
2022-10-31T22:44:19.429Z,13.95
2022-10-31T22:47:25.574Z,10.05
2022-10-31T22:50:31.794Z,8.15
2022-10-31T22:53:37.237Z,13.35
2022-10-31T22:56:47.382Z,9.35
2022-10-31T23:02:57.349Z,11.12
2022-10-31T23:06:14.050Z,6.62
2022-10-31T23:09:21.069Z,7.67
2022-10-31T23:12:44.156Z,8.93
2022-10-31T23:15:52.534Z,7.30
2022-10-31T23:18:58.457Z,7.20
2022-10-31T23:22:08.533Z,8.43
2022-10-31T23:25:14.224Z,7.15
2022-10-31T23:28:19.847Z,10.32
2022-10-31T23:31:26.545Z,12.05
2022-10-31T23:34:32.079Z,8.88
2022-10-31T23:37:39.653Z,10.45
2022-10-31T23:40:47.254Z,11.22
2022-10-31T23:43:55.312Z,8.58
2022-10-31T23:47:02.516Z,10.15
2022-10-31T23:50:08.081Z,6.80
2022-10-31T23:53:15.181Z,9.53
2022-10-31T23:56:22.477Z,6.65
2022-10-31T23:59:30.208Z,5.70
